sensor_id;sensor_type;location;lat;lon;timestamp;pressure;altitude;pressure_sealevel;temperature;humidity
29733;BME280;16643;43.158;25.302;2023-04-05T00:01:29;97591.75;;;3.90;100.00
29733;BME280;16643;43.158;25.302;2023-04-05T00:03:55;97589.16;;;3.91;100.00
29733;BME280;16643;43.158;25.302;2023-04-05T00:06:23;97559.44;;;3.71;100.00
29733;BME280;16643;43.158;25.302;2023-04-05T00:09:01;97583.34;;;3.77;100.00
29733;BME280;16643;43.158;25.302;2023-04-05T00:11:30;97574.91;;;3.64;100.00
29733;BME280;16643;43.158;25.302;2023-04-05T00:13:58;97575.72;;;3.70;100.00
29733;BME280;16643;43.158;25.302;2023-04-05T00:16:26;97605.72;;;3.68;100.00
29733;BME280;16643;43.158;25.302;2023-04-05T00:18:52;97583.56;;;3.60;100.00
29733;BME280;16643;43.158;25.302;2023-04-05T00:21:18;97566.31;;;3.69;100.00
29733;BME280;16643;43.158;25.302;2023-04-05T00:23:52;97582.50;;;3.75;100.00
29733;BME280;16643;43.158;25.302;2023-04-05T00:26:18;97559.59;;;3.57;100.00
29733;BME280;16643;43.158;25.302;2023-04-05T00:28:49;97581.59;;;3.79;100.00
29733;BME280;16643;43.158;25.302;2023-04-05T00:31:15;97573.19;;;3.67;100.00
29733;BME280;16643;43.158;25.302;2023-04-05T00:33:41;97585.06;;;3.77;100.00
29733;BME280;16643;43.158;25.302;2023-04-05T00:36:19;97569.59;;;3.80;100.00
29733;BME280;16643;43.158;25.302;2023-04-05T00:38:46;97584.16;;;3.81;100.00
29733;BME280;16643;43.158;25.302;2023-04-05T00:41:12;97593.50;;;3.86;100.00
29733;BME280;16643;43.158;25.302;2023-04-05T00:43:38;97582.34;;;3.89;100.00
29733;BME280;16643;43.158;25.302;2023-04-05T00:46:05;97575.50;;;3.86;100.00
29733;BME280;16643;43.158;25.302;2023-04-05T00:48:32;97590.09;;;3.84;100.00
29733;BME280;16643;43.158;25.302;2023-04-05T00:50:58;97590.09;;;-142.82;100.00
29733;BME280;16643;43.158;25.302;2023-04-05T00:53:24;97600.69;;;3.60;100.00
29733;BME280;16643;43.158;25.302;2023-04-05T00:55:52;97586.03;;;3.67;100.00
29733;BME280;16643;43.158;25.302;2023-04-05T00:58:18;97592.91;;;3.63;100.00
29733;BME280;16643;43.158;25.302;2023-04-05T01:01:09;97585.31;;;3.55;100.00
29733;BME280;16643;43.158;25.302;2023-04-05T01:03:40;97582.00;;;3.46;100.00
29733;BME280;16643;43.158;25.302;2023-04-05T01:06:19;97588.75;;;3.54;100.00
29733;BME280;16643;43.158;25.302;2023-04-05T01:11:29;97580.41;;;3.34;100.00
29733;BME280;16643;43.158;25.302;2023-04-05T01:14:00;97600.06;;;3.38;100.00
29733;BME280;16643;43.158;25.302;2023-04-05T01:16:26;97600.06;;;-142.82;100.00
29733;BME280;16643;43.158;25.302;2023-04-05T01:18:55;97576.97;;;3.34;100.00
29733;BME280;16643;43.158;25.302;2023-04-05T01:29:43;97597.50;;;3.38;100.00
29733;BME280;16643;43.158;25.302;2023-04-05T01:35:11;97580.41;;;3.33;100.00
29733;BME280;16643;43.158;25.302;2023-04-05T01:37:44;97597.53;;;3.32;100.00
29733;BME280;16643;43.158;25.302;2023-04-05T01:40:12;97596.66;;;3.35;100.00
29733;BME280;16643;43.158;25.302;2023-04-05T01:42:38;97595.81;;;3.34;100.00
29733;BME280;16643;43.158;25.302;2023-04-05T01:45:04;97589.91;;;3.26;100.00
29733;BME280;16643;43.158;25.302;2023-04-05T01:47:29;97586.53;;;3.21;100.00
29733;BME280;16643;43.158;25.302;2023-04-05T01:49:55;97571.16;;;3.16;100.00
29733;BME280;16643;43.158;25.302;2023-04-05T01:52:21;97588.31;;;3.13;100.00
29733;BME280;16643;43.158;25.302;2023-04-05T01:54:46;97583.22;;;3.10;100.00
29733;BME280;16643;43.158;25.302;2023-04-05T01:57:12;97608.84;;;3.13;100.00
29733;BME280;16643;43.158;25.302;2023-04-05T01:59:38;97591.75;;;3.12;100.00
29733;BME280;16643;43.158;25.302;2023-04-05T02:02:03;97594.22;;;3.19;100.00
29733;BME280;16643;43.158;25.302;2023-04-05T02:04:29;97615.59;;;3.23;100.00
29733;BME280;16643;43.158;25.302;2023-04-05T02:06:55;97613.88;;;3.23;100.00
29733;BME280;16643;43.158;25.302;2023-04-05T02:09:20;97564.34;;;3.14;100.00
29733;BME280;16643;43.158;25.302;2023-04-05T02:11:46;97594.19;;;3.24;100.00
29733;BME280;16643;43.158;25.302;2023-04-05T02:14:11;97570.25;;;3.20;100.00
29733;BME280;16643;43.158;25.302;2023-04-05T02:16:37;97561.78;;;3.14;100.00
29733;BME280;16643;43.158;25.302;2023-04-05T02:19:03;97564.25;;;3.24;100.00
29733;BME280;16643;43.158;25.302;2023-04-05T02:21:30;97594.09;;;3.36;100.00
29733;BME280;16643;43.158;25.302;2023-04-05T02:23:56;97586.41;;;3.32;100.00
29733;BME280;16643;43.158;25.302;2023-04-05T02:26:21;97580.50;;;3.25;100.00
29733;BME280;16643;43.158;25.302;2023-04-05T02:28:47;97587.38;;;3.20;100.00
29733;BME280;16643;43.158;25.302;2023-04-05T02:31:13;97593.38;;;3.17;100.00
29733;BME280;16643;43.158;25.302;2023-04-05T02:33:39;97596.78;;;3.22;100.00
29733;BME280;16643;43.158;25.302;2023-04-05T02:36:07;97594.09;;;3.36;100.00
29733;BME280;16643;43.158;25.302;2023-04-05T02:38:34;97593.31;;;3.26;100.00
29733;BME280;16643;43.158;25.302;2023-04-05T02:41:00;97612.28;;;3.12;100.00
29733;BME280;16643;43.158;25.302;2023-04-05T02:43:26;97605.38;;;3.17;100.00
29733;BME280;16643;43.158;25.302;2023-04-05T02:45:52;97597.72;;;3.12;100.00
29733;BME280;16643;43.158;25.302;2023-04-05T02:48:17;97585.81;;;3.05;100.00
29733;BME280;16643;43.158;25.302;2023-04-05T02:50:47;97611.50;;;3.04;100.00
29733;BME280;16643;43.158;25.302;2023-04-05T02:53:14;97588.38;;;3.05;100.00
29733;BME280;16643;43.158;25.302;2023-04-05T02:55:39;97603.75;;;3.08;100.00
29733;BME280;16643;43.158;25.302;2023-04-05T02:58:06;97614.94;;;3.03;100.00
29733;BME280;16643;43.158;25.302;2023-04-05T03:00:33;97598.69;;;3.02;100.00
29733;BME280;16643;43.158;25.302;2023-04-05T03:02:58;97583.41;;;2.90;100.00
29733;BME280;16643;43.158;25.302;2023-04-05T03:05:24;97601.38;;;2.88;100.00
29733;BME280;16643;43.158;25.302;2023-04-05T03:07:50;97592.75;;;2.94;100.00
29733;BME280;16643;43.158;25.302;2023-04-05T03:10:17;97600.41;;;2.99;100.00
29733;BME280;16643;43.158;25.302;2023-04-05T03:12:44;97620.09;;;2.97;100.00
29733;BME280;16643;43.158;25.302;2023-04-05T03:15:10;75438.56;;;-142.82;100.00
29733;BME280;16643;43.158;25.302;2023-04-05T03:17:36;97590.25;;;2.88;100.00
29733;BME280;16643;43.158;25.302;2023-04-05T03:20:03;97608.16;;;2.94;100.00
29733;BME280;16643;43.158;25.302;2023-04-05T03:22:33;97603.09;;;2.86;100.00
29733;BME280;16643;43.158;25.302;2023-04-05T03:24:58;97597.97;;;2.85;100.00
29733;BME280;16643;43.158;25.302;2023-04-05T03:27:25;97609.06;;;2.88;100.00
29733;BME280;16643;43.158;25.302;2023-04-05T03:29:51;97607.38;;;2.84;100.00
29733;BME280;16643;43.158;25.302;2023-04-05T03:32:17;97603.91;;;2.91;100.00
29733;BME280;16643;43.158;25.302;2023-04-05T03:34:42;75432.63;;;-144.12;100.00
29733;BME280;16643;43.158;25.302;2023-04-05T03:37:08;97612.41;;;2.93;100.00
29733;BME280;16643;43.158;25.302;2023-04-05T03:39:34;97606.41;;;3.01;100.00
29733;BME280;16643;43.158;25.302;2023-04-05T03:42:00;97598.78;;;2.90;100.00
29733;BME280;16643;43.158;25.302;2023-04-05T03:44:26;97617.53;;;2.98;100.00
29733;BME280;16643;43.158;25.302;2023-04-05T03:46:52;97620.88;;;3.06;100.00
29733;BME280;16643;43.158;25.302;2023-04-05T03:49:18;97597.91;;;2.92;100.00
29733;BME280;16643;43.158;25.302;2023-04-05T03:51:44;97622.66;;;2.98;100.00
29733;BME280;16643;43.158;25.302;2023-04-05T03:54:11;97613.25;;;3.00;100.00
29733;BME280;16643;43.158;25.302;2023-04-05T03:56:37;97616.66;;;3.02;100.00
29733;BME280;16643;43.158;25.302;2023-04-05T03:59:02;97615.84;;;2.94;100.00
29733;BME280;16643;43.158;25.302;2023-04-05T04:01:29;97626.88;;;3.05;100.00
29733;BME280;16643;43.158;25.302;2023-04-05T04:03:55;97617.59;;;2.92;100.00
29733;BME280;16643;43.158;25.302;2023-04-05T04:06:20;97601.34;;;2.91;100.00
29733;BME280;16643;43.158;25.302;2023-04-05T04:08:46;97621.78;;;3.01;100.00
29733;BME280;16643;43.158;25.302;2023-04-05T04:11:12;97626.94;;;2.99;100.00
29733;BME280;16643;43.158;25.302;2023-04-05T04:13:37;97611.63;;;2.87;100.00
29733;BME280;16643;43.158;25.302;2023-04-05T04:16:03;97615.91;;;2.86;100.00
29733;BME280;16643;43.158;25.302;2023-04-05T04:18:29;97643.25;;;2.90;100.00
29733;BME280;16643;43.158;25.302;2023-04-05T04:20:54;97614.22;;;2.84;100.00
29733;BME280;16643;43.158;25.302;2023-04-05T04:23:21;97608.22;;;2.88;100.00
29733;BME280;16643;43.158;25.302;2023-04-05T04:25:49;97622.72;;;2.92;100.00
29733;BME280;16643;43.158;25.302;2023-04-05T04:28:19;97635.50;;;2.93;100.00
29733;BME280;16643;43.158;25.302;2023-04-05T04:30:45;97626.19;;;2.83;100.00
29733;BME280;16643;43.158;25.302;2023-04-05T04:33:11;97615.03;;;2.89;100.00
29733;BME280;16643;43.158;25.302;2023-04-05T04:35:37;97628.72;;;2.89;100.00
29733;BME280;16643;43.158;25.302;2023-04-05T04:38:04;97629.50;;;2.98;100.00
29733;BME280;16643;43.158;25.302;2023-04-05T04:40:32;97603.94;;;2.88;100.00
29733;BME280;16643;43.158;25.302;2023-04-05T04:43:08;97620.91;;;3.05;100.00
29733;BME280;16643;43.158;25.302;2023-04-05T04:45:42;97602.97;;;3.00;100.00
29733;BME280;16643;43.158;25.302;2023-04-05T04:48:07;97621.69;;;3.14;100.00
29733;BME280;16643;43.158;25.302;2023-04-05T04:50:34;97632.75;;;3.18;100.00
29733;BME280;16643;43.158;25.302;2023-04-05T04:53:00;97612.31;;;3.07;100.00
29733;BME280;16643;43.158;25.302;2023-04-05T04:55:29;97631.94;;;3.16;100.00
29733;BME280;16643;43.158;25.302;2023-04-05T04:57:58;97598.59;;;3.13;100.00
29733;BME280;16643;43.158;25.302;2023-04-05T05:00:24;97619.81;;;3.28;100.00
29733;BME280;16643;43.158;25.302;2023-04-05T05:02:54;97608.75;;;3.23;100.00
29733;BME280;16643;43.158;25.302;2023-04-05T05:05:20;97618.03;;;3.37;100.00
29733;BME280;16643;43.158;25.302;2023-04-05T05:07:48;97624.91;;;3.36;100.00
29733;BME280;16643;43.158;25.302;2023-04-05T05:10:14;97599.38;;;3.19;100.00
29733;BME280;16643;43.158;25.302;2023-04-05T05:12:41;97626.63;;;3.36;100.00
29733;BME280;16643;43.158;25.302;2023-04-05T05:15:08;97629.13;;;3.40;100.00
29733;BME280;16643;43.158;25.302;2023-04-05T05:17:34;97629.13;;;-142.82;100.00
29733;BME280;16643;43.158;25.302;2023-04-05T05:20:00;97635.91;;;3.49;100.00
29733;BME280;16643;43.158;25.302;2023-04-05T05:22:26;97640.13;;;3.54;100.00
29733;BME280;16643;43.158;25.302;2023-04-05T05:24:52;97614.44;;;3.51;100.00
29733;BME280;16643;43.158;25.302;2023-04-05T05:27:18;97616.09;;;3.60;100.00
29733;BME280;16643;43.158;25.302;2023-04-05T05:29:43;97604.09;;;3.60;100.00
29733;BME280;16643;43.158;25.302;2023-04-05T05:32:10;97631.41;;;3.69;100.00
29733;BME280;16643;43.158;25.302;2023-04-05T05:34:41;97639.88;;;3.74;100.00
29733;BME280;16643;43.158;25.302;2023-04-05T05:37:10;97616.81;;;3.71;100.00
29733;BME280;16643;43.158;25.302;2023-04-05T05:39:36;97623.63;;;3.74;100.00
29733;BME280;16643;43.158;25.302;2023-04-05T05:42:02;97614.13;;;3.82;100.00
29733;BME280;16643;43.158;25.302;2023-04-05T05:44:29;97633.63;;;3.98;100.00
29733;BME280;16643;43.158;25.302;2023-04-05T05:46:55;97614.84;;;3.93;100.00
29733;BME280;16643;43.158;25.302;2023-04-05T05:49:21;97620.84;;;3.95;100.00
29733;BME280;16643;43.158;25.302;2023-04-05T05:51:48;97636.97;;;4.06;100.00
29733;BME280;16643;43.158;25.302;2023-04-05T05:54:15;97630.13;;;4.05;100.00
29733;BME280;16643;43.158;25.302;2023-04-05T05:56:41;97646.22;;;4.19;100.00
29733;BME280;16643;43.158;25.302;2023-04-05T05:59:06;97640.19;;;4.22;100.00
29733;BME280;16643;43.158;25.302;2023-04-05T06:01:32;97621.31;;;4.23;100.00
29733;BME280;16643;43.158;25.302;2023-04-05T06:03:59;97621.38;;;4.18;100.00
29733;BME280;16643;43.158;25.302;2023-04-05T06:06:25;97594.06;;;4.10;100.00
29733;BME280;16643;43.158;25.302;2023-04-05T06:08:51;97635.84;;;4.27;100.00
29733;BME280;16643;43.158;25.302;2023-04-05T06:11:20;97630.69;;;4.28;100.00
29733;BME280;16643;43.158;25.302;2023-04-05T06:13:48;97643.34;;;4.41;100.00
29733;BME280;16643;43.158;25.302;2023-04-05T06:16:16;97645.88;;;4.47;100.00
29733;BME280;16643;43.158;25.302;2023-04-05T06:18:42;97669.84;;;4.49;100.00
29733;BME280;16643;43.158;25.302;2023-04-05T06:21:08;97638.88;;;4.56;100.00
29733;BME280;16643;43.158;25.302;2023-04-05T06:23:33;97649.69;;;4.78;100.00
29733;BME280;16643;43.158;25.302;2023-04-05T06:25:59;97656.47;;;4.85;100.00
29733;BME280;16643;43.158;25.302;2023-04-05T06:28:25;97676.09;;;4.91;100.00
29733;BME280;16643;43.158;25.302;2023-04-05T06:30:51;97659.59;;;5.05;100.00
29733;BME280;16643;43.158;25.302;2023-04-05T06:33:16;97634.72;;;5.03;100.00
29733;BME280;16643;43.158;25.302;2023-04-05T06:35:42;97661.91;;;5.21;100.00
29733;BME280;16643;43.158;25.302;2023-04-05T06:38:07;97663.53;;;5.26;100.00
29733;BME280;16643;43.158;25.302;2023-04-05T06:40:33;97678.13;;;5.27;100.00
29733;BME280;16643;43.158;25.302;2023-04-05T06:42:59;97668.53;;;5.35;100.00
29733;BME280;16643;43.158;25.302;2023-04-05T06:45:25;97683.00;;;5.42;100.00
29733;BME280;16643;43.158;25.302;2023-04-05T06:47:50;97654.91;;;5.29;100.00
29733;BME280;16643;43.158;25.302;2023-04-05T06:50:16;97686.41;;;5.44;100.00
29733;BME280;16643;43.158;25.302;2023-04-05T06:52:41;97691.50;;;5.49;100.00
29733;BME280;16643;43.158;25.302;2023-04-05T06:55:07;97703.44;;;5.53;100.00
29733;BME280;16643;43.158;25.302;2023-04-05T06:57:33;97680.22;;;5.55;100.00
29733;BME280;16643;43.158;25.302;2023-04-05T06:59:59;97673.34;;;5.55;100.00
29733;BME280;16643;43.158;25.302;2023-04-05T07:02:25;97695.50;;;5.65;100.00
29733;BME280;16643;43.158;25.302;2023-04-05T07:04:50;97702.88;;;5.87;100.00
29733;BME280;16643;43.158;25.302;2023-04-05T07:07:17;97679.41;;;6.00;100.00
29733;BME280;16643;43.158;25.302;2023-04-05T07:09:43;97680.22;;;6.04;100.00
29733;BME280;16643;43.158;25.302;2023-04-05T07:12:08;97683.63;;;6.06;100.00
29733;BME280;16643;43.158;25.302;2023-04-05T07:14:36;97703.28;;;6.11;100.00
29733;BME280;16643;43.158;25.302;2023-04-05T07:17:04;97712.69;;;6.14;100.00
29733;BME280;16643;43.158;25.302;2023-04-05T07:19:30;97702.34;;;6.15;100.00
29733;BME280;16643;43.158;25.302;2023-04-05T07:21:56;97702.38;;;6.14;100.00
29733;BME280;16643;43.158;25.302;2023-04-05T07:24:22;97706.44;;;6.26;100.00
29733;BME280;16643;43.158;25.302;2023-04-05T07:26:47;97730.59;;;6.22;100.00
29733;BME280;16643;43.158;25.302;2023-04-05T07:29:13;97704.63;;;6.31;100.00
29733;BME280;16643;43.158;25.302;2023-04-05T07:31:39;97691.66;;;6.32;100.00
29733;BME280;16643;43.158;25.302;2023-04-05T07:34:05;97696.81;;;6.34;100.00
29733;BME280;16643;43.158;25.302;2023-04-05T07:36:31;97734.19;;;6.57;100.00
29733;BME280;16643;43.158;25.302;2023-04-05T07:38:57;97688.75;;;6.49;100.00
29733;BME280;16643;43.158;25.302;2023-04-05T07:41:24;97707.31;;;6.66;100.00
29733;BME280;16643;43.158;25.302;2023-04-05T07:43:50;97711.69;;;6.64;100.00
29733;BME280;16643;43.158;25.302;2023-04-05T07:46:15;97702.38;;;6.55;100.00
29733;BME280;16643;43.158;25.302;2023-04-05T07:48:41;97702.25;;;6.62;100.00
29733;BME280;16643;43.158;25.302;2023-04-05T07:51:08;97714.03;;;6.75;100.00
29733;BME280;16643;43.158;25.302;2023-04-05T07:53:35;97721.13;;;6.65;100.00
29733;BME280;16643;43.158;25.302;2023-04-05T07:56:11;97708.38;;;6.57;100.00
29733;BME280;16643;43.158;25.302;2023-04-05T07:58:40;97722.25;;;6.52;100.00
29733;BME280;16643;43.158;25.302;2023-04-05T08:01:08;97724.84;;;6.52;100.00
29733;BME280;16643;43.158;25.302;2023-04-05T08:03:35;97712.19;;;6.40;100.00
29733;BME280;16643;43.158;25.302;2023-04-05T08:06:14;97725.91;;;6.42;100.00
29733;BME280;16643;43.158;25.302;2023-04-05T08:08:45;97735.16;;;6.53;100.00
29733;BME280;16643;43.158;25.302;2023-04-05T08:11:11;97736.09;;;6.48;100.00
29733;BME280;16643;43.158;25.302;2023-04-05T08:13:38;97736.03;;;6.52;100.00
29733;BME280;16643;43.158;25.302;2023-04-05T08:16:07;97729.19;;;6.50;100.00
29733;BME280;16643;43.158;25.302;2023-04-05T08:18:32;97736.94;;;6.48;100.00
29733;BME280;16643;43.158;25.302;2023-04-05T08:20:58;97723.38;;;6.39;100.00
29733;BME280;16643;43.158;25.302;2023-04-05T08:23:24;97709.91;;;6.23;100.00
29733;BME280;16643;43.158;25.302;2023-04-05T08:25:50;97738.03;;;6.38;100.00
29733;BME280;16643;43.158;25.302;2023-04-05T08:28:17;97693.78;;;6.13;100.00
29733;BME280;16643;43.158;25.302;2023-04-05T08:30:42;97712.41;;;6.29;100.00
29733;BME280;16643;43.158;25.302;2023-04-05T08:33:08;97721.06;;;6.25;100.00
29733;BME280;16643;43.158;25.302;2023-04-05T08:35:37;97727.94;;;6.26;100.00
29733;BME280;16643;43.158;25.302;2023-04-05T08:38:04;97721.91;;;6.26;100.00
29733;BME280;16643;43.158;25.302;2023-04-05T08:40:39;97743.16;;;6.40;100.00
29733;BME280;16643;43.158;25.302;2023-04-05T08:46:00;97727.94;;;6.26;100.00
29733;BME280;16643;43.158;25.302;2023-04-05T08:48:30;97734.78;;;6.27;100.00
29733;BME280;16643;43.158;25.302;2023-04-05T08:50:56;97743.28;;;6.32;100.00
29733;BME280;16643;43.158;25.302;2023-04-05T08:53:22;97748.41;;;6.34;100.00
29733;BME280;16643;43.158;25.302;2023-04-05T08:55:48;97731.38;;;6.27;100.00
29733;BME280;16643;43.158;25.302;2023-04-05T08:58:19;97734.63;;;6.36;100.00
29733;BME280;16643;43.158;25.302;2023-04-05T09:00:46;97749.19;;;6.39;100.00
29733;BME280;16643;43.158;25.302;2023-04-05T09:03:17;97760.91;;;6.55;100.00
29733;BME280;16643;43.158;25.302;2023-04-05T09:05:49;97757.53;;;6.53;100.00
29733;BME280;16643;43.158;25.302;2023-04-05T09:08:16;97755.53;;;6.21;100.00
29733;BME280;16643;43.158;25.302;2023-04-05T09:10:42;97756.09;;;6.38;100.00
29733;BME280;16643;43.158;25.302;2023-04-05T09:13:08;97762.94;;;6.39;100.00
29733;BME280;16643;43.158;25.302;2023-04-05T09:15:37;97756.09;;;6.38;100.00
29733;BME280;16643;43.158;25.302;2023-04-05T09:18:03;97759.50;;;6.40;100.00
29733;BME280;16643;43.158;25.302;2023-04-05T09:20:29;97760.25;;;6.44;100.00
29733;BME280;16643;43.158;25.302;2023-04-05T09:22:58;97755.78;;;6.53;100.00
29733;BME280;16643;43.158;25.302;2023-04-05T09:27:56;97759.66;;;6.74;100.00
29733;BME280;16643;43.158;25.302;2023-04-05T09:30:23;97765.56;;;6.79;100.00
29733;BME280;16643;43.158;25.302;2023-04-05T09:32:52;97736.06;;;6.49;100.00
29733;BME280;16643;43.158;25.302;2023-04-05T09:35:23;97738.25;;;6.69;100.00
29733;BME280;16643;43.158;25.302;2023-04-05T09:37:57;97760.41;;;6.79;100.00
29733;BME280;16643;43.158;25.302;2023-04-05T09:40:43;97742.50;;;6.72;100.00
29733;BME280;16643;43.158;25.302;2023-04-05T09:43:34;97758.69;;;6.80;100.00
29733;BME280;16643;43.158;25.302;2023-04-05T09:45:59;97757.56;;;6.91;99.74
29733;BME280;16643;43.158;25.302;2023-04-05T09:48:49;97762.66;;;6.96;99.25
29733;BME280;16643;43.158;25.302;2023-04-05T09:51:16;97765.22;;;6.96;99.73
29733;BME280;16643;43.158;25.302;2023-04-05T09:54:03;97766.97;;;6.96;99.95
29733;BME280;16643;43.158;25.302;2023-04-05T09:56:31;97762.88;;;6.85;100.00
29733;BME280;16643;43.158;25.302;2023-04-05T09:59:15;97761.06;;;6.89;100.00
29733;BME280;16643;43.158;25.302;2023-04-05T10:01:44;97750.72;;;6.89;100.00
29733;BME280;16643;43.158;25.302;2023-04-05T10:04:18;97786.00;;;6.90;100.00
29733;BME280;16643;43.158;25.302;2023-04-05T10:06:43;97735.38;;;6.83;99.56
29733;BME280;16643;43.158;25.302;2023-04-05T10:09:10;97756.06;;;6.81;100.00
29733;BME280;16643;43.158;25.302;2023-04-05T10:11:37;97749.06;;;6.88;100.00
29733;BME280;16643;43.158;25.302;2023-04-05T10:14:04;97737.94;;;6.84;100.00
29733;BME280;16643;43.158;25.302;2023-04-05T10:16:57;97733.38;;;6.96;100.00
29733;BME280;16643;43.158;25.302;2023-04-05T10:19:28;97763.13;;;7.13;100.00
29733;BME280;16643;43.158;25.302;2023-04-05T10:21:59;97759.06;;;7.02;100.00
29733;BME280;16643;43.158;25.302;2023-04-05T10:24:32;97758.28;;;7.00;100.00
29733;BME280;16643;43.158;25.302;2023-04-05T10:27:13;97733.56;;;6.88;100.00
29733;BME280;16643;43.158;25.302;2023-04-05T10:30:03;97727.91;;;6.69;100.00
29733;BME280;16643;43.158;25.302;2023-04-05T10:35:30;97758.38;;;6.93;100.00
29733;BME280;16643;43.158;25.302;2023-04-05T10:38:11;97757.59;;;6.90;100.00
29733;BME280;16643;43.158;25.302;2023-04-05T10:40:42;97742.31;;;6.79;100.00
29733;BME280;16643;43.158;25.302;2023-04-05T10:43:14;97752.19;;;7.01;100.00
29733;BME280;16643;43.158;25.302;2023-04-05T10:45:43;97752.06;;;7.07;100.00
29733;BME280;16643;43.158;25.302;2023-04-05T10:48:20;97754.53;;;7.11;99.14
29733;BME280;16643;43.158;25.302;2023-04-05T10:50:49;97752.81;;;7.12;100.00
29733;BME280;16643;43.158;25.302;2023-04-05T10:53:15;97759.53;;;7.20;100.00
29733;BME280;16643;43.158;25.302;2023-04-05T10:55:43;97754.16;;;7.29;99.64
29733;BME280;16643;43.158;25.302;2023-04-05T10:58:12;97759.16;;;7.36;99.03
29733;BME280;16643;43.158;25.302;2023-04-05T11:00:39;97739.19;;;7.42;99.58
29733;BME280;16643;43.158;25.302;2023-04-05T11:03:05;97749.06;;;7.62;97.90
29733;BME280;16643;43.158;25.302;2023-04-05T11:05:33;97763.66;;;7.64;96.86
29733;BME280;16643;43.158;25.302;2023-04-05T11:08:10;97755.16;;;7.59;95.91
29733;BME280;16643;43.158;25.302;2023-04-05T11:10:38;97757.00;;;7.54;95.79
29733;BME280;16643;43.158;25.302;2023-04-05T11:13:05;97757.00;;;7.54;96.95
29733;BME280;16643;43.158;25.302;2023-04-05T11:15:32;97746.53;;;7.59;97.65
29733;BME280;16643;43.158;25.302;2023-04-05T11:20:49;97749.03;;;7.63;94.17
29733;BME280;16643;43.158;25.302;2023-04-05T11:23:21;97750.13;;;7.53;94.13
29733;BME280;16643;43.158;25.302;2023-04-05T11:25:51;97758.03;;;7.47;97.36
29733;BME280;16643;43.158;25.302;2023-04-05T11:28:32;97756.66;;;7.33;96.01
29733;BME280;16643;43.158;25.302;2023-04-05T11:44:17;97745.53;;;7.29;98.23
29733;BME280;16643;43.158;25.302;2023-04-05T11:46:46;97742.22;;;7.22;98.84
29733;BME280;16643;43.158;25.302;2023-04-05T11:49:13;97749.75;;;7.33;97.78
29733;BME280;16643;43.158;25.302;2023-04-05T11:51:42;97755.84;;;7.31;98.05
29733;BME280;16643;43.158;25.302;2023-04-05T11:54:09;97751.59;;;7.28;98.66
29733;BME280;16643;43.158;25.302;2023-04-05T11:56:34;97754.34;;;7.20;98.55
29733;BME280;16643;43.158;25.302;2023-04-05T11:59:01;97731.88;;;7.22;99.55
29733;BME280;16643;43.158;25.302;2023-04-05T12:01:27;97746.13;;;7.40;99.71
29733;BME280;16643;43.158;25.302;2023-04-05T12:03:54;97751.03;;;7.52;99.40
29733;BME280;16643;43.158;25.302;2023-04-05T12:06:24;97744.41;;;7.41;95.72
29733;BME280;16643;43.158;25.302;2023-04-05T12:08:51;97742.81;;;7.34;96.40
29733;BME280;16643;43.158;25.302;2023-04-05T12:11:27;97758.72;;;7.55;96.47
29733;BME280;16643;43.158;25.302;2023-04-05T12:13:56;97720.88;;;7.51;97.40
29733;BME280;16643;43.158;25.302;2023-04-05T12:16:23;97759.09;;;7.74;95.29
29733;BME280;16643;43.158;25.302;2023-04-05T12:18:53;97747.25;;;7.65;94.58
29733;BME280;16643;43.158;25.302;2023-04-05T12:21:19;97736.88;;;7.67;93.72
29733;BME280;16643;43.158;25.302;2023-04-05T12:23:45;97746.22;;;7.73;95.78
29733;BME280;16643;43.158;25.302;2023-04-05T12:26:12;97752.72;;;7.89;96.43
29733;BME280;16643;43.158;25.302;2023-04-05T12:28:57;97738.41;;;7.74;95.97
29733;BME280;16643;43.158;25.302;2023-04-05T12:31:43;97758.03;;;7.83;95.80
29733;BME280;16643;43.158;25.302;2023-04-05T12:34:11;97748.50;;;7.85;95.84
29733;BME280;16643;43.158;25.302;2023-04-05T12:36:38;97748.41;;;7.88;95.28
29733;BME280;16643;43.158;25.302;2023-04-05T12:39:08;97755.88;;;8.00;92.77
29733;BME280;16643;43.158;25.302;2023-04-05T12:41:35;97764.63;;;7.94;93.97
29733;BME280;16643;43.158;25.302;2023-04-05T12:44:14;97738.97;;;7.87;94.64
29733;BME280;16643;43.158;25.302;2023-04-05T12:46:43;97741.50;;;7.88;94.52
29733;BME280;16643;43.158;25.302;2023-04-05T12:49:10;97776.09;;;7.84;92.76
29733;BME280;16643;43.158;25.302;2023-04-05T12:51:40;97733.97;;;7.79;92.73
29733;BME280;16643;43.158;25.302;2023-04-05T12:54:07;97735.84;;;7.73;92.39
29733;BME280;16643;43.158;25.302;2023-04-05T12:56:32;97751.16;;;7.82;95.80
29733;BME280;16643;43.158;25.302;2023-04-05T12:58:58;97752.44;;;7.65;93.19
29733;BME280;16643;43.158;25.302;2023-04-05T13:01:24;97750.31;;;7.80;94.61
29733;BME280;16643;43.158;25.302;2023-04-05T13:03:49;97747.66;;;7.83;95.78
29733;BME280;16643;43.158;25.302;2023-04-05T13:06:16;97748.28;;;7.92;95.29
29733;BME280;16643;43.158;25.302;2023-04-05T13:08:41;97739.56;;;7.96;94.06
29733;BME280;16643;43.158;25.302;2023-04-05T13:11:07;97745.56;;;7.98;92.14
29733;BME280;16643;43.158;25.302;2023-04-05T13:13:32;97697.16;;;7.68;93.37
29733;BME280;16643;43.158;25.302;2023-04-05T13:15:58;97739.59;;;7.95;92.89
29733;BME280;16643;43.158;25.302;2023-04-05T13:18:24;97751.00;;;7.88;93.99
29733;BME280;16643;43.158;25.302;2023-04-05T13:20:50;97729.34;;;7.90;92.28
29733;BME280;16643;43.158;25.302;2023-04-05T13:23:16;97716.59;;;7.84;92.74
29733;BME280;16643;43.158;25.302;2023-04-05T13:25:42;97725.97;;;7.88;93.20
29733;BME280;16643;43.158;25.302;2023-04-05T13:28:11;97745.91;;;7.85;93.53
29733;BME280;16643;43.158;25.302;2023-04-05T13:30:37;97733.00;;;7.83;96.50
29733;BME280;16643;43.158;25.302;2023-04-05T13:33:02;97748.31;;;7.91;93.59
29733;BME280;16643;43.158;25.302;2023-04-05T13:35:29;97750.81;;;7.95;93.64